AIRPORT ID: FZQF

DATE: 2024-06-16 ZULU TIME: 13.46 LOCAL TIME: 13.46


METAR FZQF 161346Z AUTO 00000KT 10SM 26/12 A3007

ALTIMETER: A3007 Q1018

DENSITY ALT: 5700 Ft

WIND DIRECT: 110

WIND SPEED: 0 Gust

WIND CONDITIONS:

VISIBILTY: 10SM 9999M

TEMPERATURE: 79 F 26 C

DEW POINT: 53 F 12 C

HUMID: 41%

LCL: Above 5,000 feet

RADIO CHECK: 0

ADVISARIES: 0

GREETINGS: 0

CONVERSATIONS: 0